Time;durP1;ratioP1;P1;durP2;ratioP2;P2;SDS_P1;SDS_P2;PMS_P1;PMS_P2;Temp;Humidity;BMP_temperature;BMP_pressure;BME280_temperature;BME280_humidity;BME280_pressure;Samples;Min_cycle;Max_cycle;Signal;HPM_P1;HPM_P2
2022/03/31 00:00:28;;;;;;;;;;;12.90;90.60;;;;;;5020836;28;20220;-80
2022/03/31 00:02:55;;;;;;;;;;;12.80;90.60;;;;;;5021193;28;19932;-80
2022/03/31 00:05:20;;;;;;;;;;;12.90;90.60;;;;;;5020518;28;20000;-80
2022/03/31 00:07:52;;;;;;;;;;;12.50;91.00;;;;;;5022524;28;19913;-80
2022/03/31 00:10:28;;;;;;;;;;;12.80;90.80;;;;;;5021513;28;20022;-80
2022/03/31 00:12:54;;;;;;;;;;;12.80;90.80;;;;;;5022166;28;19909;-81
2022/03/31 00:15:21;;;;;;;;;;;12.80;90.40;;;;;;5020481;28;19913;-81
2022/03/31 00:17:46;;;;;;;;;;;12.80;90.40;;;;;;5000959;28;19917;-81
2022/03/31 00:20:12;;;;;;;;;;;12.80;90.50;;;;;;5000782;28;20338;-81
2022/03/31 00:22:38;;;;;;;;;;;12.80;90.50;;;;;;5018659;28;20399;-82
2022/03/31 00:25:05;;;;;;;;;;;12.80;90.40;;;;;;5018589;28;20141;-80
2022/03/31 00:27:32;;;;;;;;;;;12.80;90.30;;;;;;5018025;28;19913;-81
2022/03/31 00:29:57;;;;;;;;;;;12.80;90.10;;;;;;5018572;28;20094;-81
2022/03/31 00:32:23;;;;;;;;;;;12.80;90.10;;;;;;5001854;28;20597;-81
2022/03/31 00:34:48;;;;;;;;;;;12.80;90.00;;;;;;5005918;28;19909;-80
2022/03/31 00:37:14;;;;;;;;;;;12.80;90.30;;;;;;5025496;28;19909;-80
2022/03/31 00:39:40;;;;;;;;;;;12.90;89.70;;;;;;5026337;28;19990;-80
2022/03/31 00:42:06;;;;;;;;;;;12.90;89.80;;;;;;5004337;28;19917;-81
2022/03/31 00:44:32;;;;;;;;;;;12.90;89.80;;;;;;5021742;28;19935;-82
2022/03/31 00:46:57;;;;;;;;;;;12.90;90.00;;;;;;5024776;28;20383;-81
2022/03/31 00:49:24;;;;;;;;;;;12.40;90.00;;;;;;5022063;28;20334;-82
2022/03/31 00:51:50;;;;;;;;;;;12.80;90.40;;;;;;5021934;28;20152;-82
2022/03/31 00:54:17;;;;;;;;;;;12.80;90.40;;;;;;5038207;28;19967;-82
2022/03/31 00:56:43;;;;;;;;;;;12.80;90.60;;;;;;5043871;28;19940;-81
2022/03/31 00:59:09;;;;;;;;;;;12.80;90.70;;;;;;5022539;28;20549;-80
2022/03/31 01:01:38;;;;;;;;;;;12.80;90.60;;;;;;5022659;28;20132;-81
2022/03/31 01:04:05;;;;;;;;;;;12.80;90.60;;;;;;5021677;28;19921;-81
2022/03/31 01:06:31;;;;;;;;;;;12.80;90.70;;;;;;5022115;28;19941;-81
2022/03/31 01:08:57;;;;;;;;;;;12.70;91.00;;;;;;5003981;28;19991;-83
2022/03/31 01:11:23;;;;;;;;;;;12.70;91.20;;;;;;5021998;28;20237;-82
2022/03/31 01:13:49;;;;;;;;;;;12.70;91.10;;;;;;5020257;28;19996;-82
2022/03/31 01:16:14;;;;;;;;;;;12.70;91.10;;;;;;5021434;28;19913;-80
2022/03/31 01:18:40;;;;;;;;;;;12.60;91.20;;;;;;5021944;28;20137;-80
2022/03/31 01:21:05;;;;;;;;;;;12.70;91.30;;;;;;5021256;28;20233;-81
2022/03/31 01:23:31;;;;;;;;;;;12.70;91.10;;;;;;5022120;28;20375;-80
2022/03/31 01:25:57;;;;;;;;;;;12.70;91.20;;;;;;5022736;28;19920;-81
2022/03/31 01:28:22;;;;;;;;;;;12.70;91.20;;;;;;5020344;28;20443;-80
2022/03/31 01:30:49;;;;;;;;;;;12.80;91.10;;;;;;5003813;28;19913;-82
2022/03/31 01:33:14;;;;;;;;;;;12.70;91.00;;;;;;5021656;28;20450;-81
2022/03/31 01:35:40;;;;;;;;;;;12.70;91.00;;;;;;5004324;28;20136;-81
2022/03/31 01:38:06;;;;;;;;;;;12.80;90.90;;;;;;5003812;28;19982;-81
2022/03/31 01:40:32;;;;;;;;;;;12.70;91.10;;;;;;5021579;28;19913;-81
2022/03/31 01:42:57;;;;;;;;;;;12.60;90.80;;;;;;5022745;28;19909;-81
2022/03/31 01:45:23;;;;;;;;;;;12.80;90.50;;;;;;5021647;28;20213;-81
2022/03/31 01:47:49;;;;;;;;;;;12.80;90.60;;;;;;5004194;28;19913;-83
2022/03/31 01:50:14;;;;;;;;;;;12.80;90.70;;;;;;5021751;28;20272;-80
2022/03/31 01:52:41;;;;;;;;;;;12.80;90.40;;;;;;5033325;28;19909;-82
2022/03/31 01:55:07;;;;;;;;;;;12.70;90.40;;;;;;5032584;28;19996;-80
2022/03/31 01:57:32;;;;;;;;;;;12.70;90.40;;;;;;5021642;28;20011;-81
2022/03/31 02:00:02;;;;;;;;;;;12.70;90.50;;;;;;5021504;28;20000;-81
2022/03/31 02:02:28;;;;;;;;;;;12.70;90.60;;;;;;5020943;28;19945;-84
2022/03/31 02:04:54;;;;;;;;;;;12.70;90.70;;;;;;5020424;28;20181;-82
2022/03/31 02:07:19;;;;;;;;;;;12.60;90.70;;;;;;5002806;28;19913;-83
2022/03/31 02:09:45;;;;;;;;;;;12.60;90.70;;;;;;5020658;28;19917;-82
2022/03/31 02:12:10;;;;;;;;;;;12.60;90.90;;;;;;5023820;28;19909;-82
2022/03/31 02:14:41;;;;;;;;;;;12.50;91.20;;;;;;5038519;28;19956;-82
2022/03/31 02:17:07;;;;;;;;;;;12.50;91.20;;;;;;5022402;28;20411;-83
2022/03/31 02:19:33;;;;;;;;;;;12.50;91.30;;;;;;5041913;28;19909;-82
2022/03/31 02:21:59;;;;;;;;;;;12.50;91.30;;;;;;5022830;28;19960;-83
2022/03/31 02:24:24;;;;;;;;;;;12.30;91.30;;;;;;5011017;28;19940;-82
2022/03/31 02:26:50;;;;;;;;;;;12.40;91.50;;;;;;5021776;28;20132;-81
2022/03/31 02:29:15;;;;;;;;;;;12.40;91.50;;;;;;5021495;28;20307;-82
2022/03/31 02:31:41;;;;;;;;;;;12.40;91.40;;;;;;5021351;28;19924;-81
2022/03/31 02:34:07;;;;;;;;;;;12.40;91.40;;;;;;5019522;28;19936;-81
2022/03/31 02:36:32;;;;;;;;;;;12.40;91.60;;;;;;5020734;28;19909;-81
2022/03/31 02:38:58;;;;;;;;;;;12.40;91.30;;;;;;5020865;28;19920;-81
2022/03/31 02:41:24;;;;;;;;;;;12.40;90.90;;;;;;5020673;28;19909;-82
2022/03/31 02:43:49;;;;;;;;;;;12.40;90.30;;;;;;5018455;28;20287;-81
2022/03/31 02:46:16;;;;;;;;;;;12.50;89.70;;;;;;5020746;28;20398;-81
2022/03/31 02:48:42;;;;;;;;;;;12.50;88.90;;;;;;5020881;28;20236;-81
2022/03/31 02:51:07;;;;;;;;;;;12.60;88.20;;;;;;5020263;28;19952;-80
2022/03/31 02:56:17;;;;;;;;;;;12.60;87.90;;;;;;5021884;28;19916;-80
2022/03/31 02:58:42;;;;;;;;;;;12.70;87.40;;;;;;5005514;28;20560;-79
2022/03/31 03:01:10;;;;;;;;;;;12.80;86.70;;;;;;5005695;28;20347;-79
2022/03/31 03:03:35;;;;;;;;;;;12.90;86.40;;;;;;5021392;28;19924;-80
2022/03/31 03:06:01;;;;;;;;;;;12.90;85.90;;;;;;5021879;28;20533;-79
2022/03/31 03:08:27;;;;;;;;;;;13.20;85.20;;;;;;5024988;28;20003;-80
2022/03/31 03:10:53;;;;;;;;;;;13.20;85.20;;;;;;5021610;28;20126;-80
2022/03/31 03:13:19;;;;;;;;;;;13.20;84.60;;;;;;5020007;28;20110;-80
2022/03/31 03:15:46;;;;;;;;;;;13.30;84.30;;;;;;5022343;28;19917;-80
2022/03/31 03:18:11;;;;;;;;;;;13.40;83.20;;;;;;5024764;28;20164;-80
2022/03/31 03:20:37;;;;;;;;;;;13.50;83.30;;;;;;5020004;28;19909;-79
2022/03/31 03:23:02;;;;;;;;;;;13.50;83.20;;;;;;5024808;28;20153;-83
2022/03/31 03:25:28;;;;;;;;;;;13.50;83.60;;;;;;5039051;28;20042;-80
2022/03/31 03:27:54;;;;;;;;;;;13.50;83.50;;;;;;5039622;28;19967;-80
2022/03/31 03:30:20;;;;;;;;;;;13.50;83.30;;;;;;5031565;28;19917;-80
2022/03/31 03:32:46;;;;;;;;;;;13.60;82.60;;;;;;5023998;28;19910;-80
2022/03/31 03:35:13;;;;;;;;;;;13.70;82.80;;;;;;5002449;28;19916;-80
2022/03/31 03:37:39;;;;;;;;;;;13.70;82.20;;;;;;5019842;28;19910;-81
2022/03/31 03:40:05;;;;;;;;;;;13.70;82.70;;;;;;5001679;28;19996;-82
2022/03/31 03:42:31;;;;;;;;;;;13.70;83.10;;;;;;5001307;28;19909;-80
2022/03/31 03:44:57;;;;;;;;;;;13.80;82.90;;;;;;5019638;28;20288;-81
2022/03/31 03:47:23;;;;;;;;;;;13.80;82.80;;;;;;5019268;28;19913;-83
2022/03/31 03:49:48;;;;;;;;;;;13.80;83.10;;;;;;5019594;28;19925;-82
2022/03/31 03:52:14;;;;;;;;;;;13.80;82.80;;;;;;5017457;28;20125;-81
2022/03/31 03:54:40;;;;;;;;;;;13.80;82.70;;;;;;5018908;28;19913;-81
2022/03/31 03:57:06;;;;;;;;;;;13.80;82.70;;;;;;5001704;28;20410;-81
2022/03/31 03:59:32;;;;;;;;;;;13.80;82.30;;;;;;5002040;28;19916;-81
2022/03/31 04:01:59;;;;;;;;;;;13.90;82.00;;;;;;5020858;28;19921;-81
2022/03/31 04:04:26;;;;;;;;;;;13.90;81.90;;;;;;5027063;28;19928;-85
2022/03/31 04:06:51;;;;;;;;;;;13.90;82.20;;;;;;5019586;28;20356;-79
2022/03/31 04:09:17;;;;;;;;;;;13.90;82.30;;;;;;5021163;28;19921;-81
2022/03/31 04:11:43;;;;;;;;;;;13.90;81.70;;;;;;5022816;28;19917;-81
2022/03/31 04:14:08;;;;;;;;;;;14.10;79.80;;;;;;5003811;28;19909;-81
2022/03/31 04:16:34;;;;;;;;;;;14.10;79.80;;;;;;5021625;28;19925;-82
2022/03/31 04:18:59;;;;;;;;;;;14.20;79.20;;;;;;5021283;28;20465;-81
2022/03/31 04:21:25;;;;;;;;;;;14.20;79.40;;;;;;5021229;28;19909;-82
2022/03/31 04:23:51;;;;;;;;;;;14.20;77.70;;;;;;5020152;28;19909;-81
2022/03/31 04:26:16;;;;;;;;;;;14.40;77.50;;;;;;5023788;28;20020;-81
2022/03/31 04:28:42;;;;;;;;;;;14.50;76.60;;;;;;5021774;28;19963;-81
2022/03/31 04:31:07;;;;;;;;;;;14.50;75.90;;;;;;5021038;28;20402;-81
2022/03/31 04:33:33;;;;;;;;;;;14.50;76.10;;;;;;5020977;28;20113;-82
2022/03/31 04:35:58;;;;;;;;;;;14.50;76.40;;;;;;5020720;28;19963;-81
2022/03/31 04:38:24;;;;;;;;;;;14.40;77.10;;;;;;5020658;28;20368;-82
2022/03/31 04:40:50;;;;;;;;;;;14.30;77.50;;;;;;5020914;28;19986;-82
2022/03/31 04:43:15;;;;;;;;;;;14.10;80.00;;;;;;5003677;28;20119;-80
2022/03/31 04:45:41;;;;;;;;;;;13.80;80.80;;;;;;5021091;28;20186;-80
2022/03/31 04:48:07;;;;;;;;;;;12.10;80.80;;;;;;5024570;28;20229;-80
2022/03/31 04:50:33;;;;;;;;;;;13.80;79.90;;;;;;5022521;28;19917;-82
2022/03/31 04:53:00;;;;;;;;;;;13.80;79.20;;;;;;5021766;28;19940;-80
2022/03/31 04:55:25;;;;;;;;;;;13.70;80.60;;;;;;5022336;28;19960;-81
2022/03/31 04:57:51;;;;;;;;;;;14.70;81.40;;;;;;5021177;28;20591;-80
2022/03/31 05:00:17;;;;;;;;;;;13.60;81.00;;;;;;5020825;28;19909;-80
2022/03/31 05:02:43;;;;;;;;;;;13.70;80.00;;;;;;5003012;28;19910;-81
2022/03/31 05:05:09;;;;;;;;;;;13.70;79.80;;;;;;4953594;28;1935032;-80
2022/03/31 05:07:34;;;;;;;;;;;13.80;79.70;;;;;;5022191;28;19937;-80
2022/03/31 05:10:00;;;;;;;;;;;13.90;79.20;;;;;;5021208;28;19932;-81
2022/03/31 05:12:26;;;;;;;;;;;14.10;78.60;;;;;;5022448;28;19909;-80
2022/03/31 05:14:52;;;;;;;;;;;14.20;78.00;;;;;;5022510;28;19935;-81
2022/03/31 05:17:18;;;;;;;;;;;14.50;76.60;;;;;;5022021;28;20016;-82
2022/03/31 05:19:44;;;;;;;;;;;14.60;75.90;;;;;;5021823;28;20350;-80
2022/03/31 05:22:09;;;;;;;;;;;14.70;75.60;;;;;;5021265;28;20214;-81
2022/03/31 05:24:35;;;;;;;;;;;14.70;75.10;;;;;;5021278;28;19916;-81
2022/03/31 05:27:00;;;;;;;;;;;14.80;74.70;;;;;;5021476;28;20409;-80
2022/03/31 05:29:26;;;;;;;;;;;14.90;74.20;;;;;;5021651;28;19917;-82
2022/03/31 05:31:52;;;;;;;;;;;14.90;73.90;;;;;;5021369;28;20170;-81
2022/03/31 05:34:19;;;;;;;;;;;14.60;73.20;;;;;;5021060;28;20240;-84
2022/03/31 05:36:46;;;;;;;;;;;15.00;74.70;;;;;;5003369;28;20218;-81
2022/03/31 05:39:11;;;;;;;;;;;14.90;74.90;;;;;;5021747;28;19909;-81
2022/03/31 05:41:37;;;;;;;;;;;14.90;75.90;;;;;;5020749;28;20387;-81
2022/03/31 05:44:02;;;;;;;;;;;15.50;75.80;;;;;;5001881;28;19909;-81
2022/03/31 05:46:29;;;;;;;;;;;15.00;75.60;;;;;;5020764;28;20190;-80
2022/03/31 05:48:54;;;;;;;;;;;14.90;75.10;;;;;;5019068;28;19920;-81
2022/03/31 05:51:20;;;;;;;;;;;14.90;75.20;;;;;;5021579;28;19917;-83
2022/03/31 05:53:46;;;;;;;;;;;14.90;75.00;;;;;;5021098;28;19944;-81
2022/03/31 05:56:12;;;;;;;;;;;14.90;74.70;;;;;;5020629;28;19964;-81
2022/03/31 05:58:38;;;;;;;;;;;15.00;74.90;;;;;;5021179;28;19920;-83
2022/03/31 06:01:04;;;;;;;;;;;15.00;75.20;;;;;;5020874;28;20467;-81
2022/03/31 06:03:30;;;;;;;;;;;15.00;75.40;;;;;;5021114;28;20177;-83
2022/03/31 06:05:56;;;;;;;;;;;14.50;74.70;;;;;;5020926;28;19913;-80
2022/03/31 06:08:21;;;;;;;;;;;15.10;76.00;;;;;;5020422;28;19956;-81
2022/03/31 06:10:47;;;;;;;;;;;15.20;76.00;;;;;;5020616;28;19948;-81
2022/03/31 06:13:13;;;;;;;;;;;15.30;75.90;;;;;;5005034;28;20402;-82
2022/03/31 06:15:39;;;;;;;;;;;15.20;76.90;;;;;;5033445;28;19917;-81
2022/03/31 06:18:06;;;;;;;;;;;15.10;77.10;;;;;;5025903;28;19918;-83
2022/03/31 06:20:34;;;;;;;;;;;15.20;76.90;;;;;;5021000;28;19931;-81
2022/03/31 06:23:00;;;;;;;;;;;15.30;76.60;;;;;;5002511;28;20004;-81
2022/03/31 06:25:25;;;;;;;;;;;15.30;76.10;;;;;;5020519;28;20241;-81
2022/03/31 06:27:51;;;;;;;;;;;15.40;76.00;;;;;;5028443;28;20382;-84
2022/03/31 06:30:16;;;;;;;;;;;15.40;78.30;;;;;;5036604;28;19917;-84
2022/03/31 06:32:42;;;;;;;;;;;15.10;78.30;;;;;;5013570;28;19987;-80
2022/03/31 06:35:14;;;;;;;;;;;15.20;79.10;;;;;;5036275;28;19931;-80
2022/03/31 06:37:44;;;;;;;;;;;14.80;81.10;;;;;;5003707;28;20000;-82
2022/03/31 06:40:10;;;;;;;;;;;14.70;81.40;;;;;;5020372;28;20442;-82
2022/03/31 06:42:36;;;;;;;;;;;14.70;81.70;;;;;;5002393;28;19948;-80
2022/03/31 06:45:02;;;;;;;;;;;15.50;80.00;;;;;;5020057;28;19948;-81
2022/03/31 06:47:28;;;;;;;;;;;15.10;78.70;;;;;;5019942;28;20039;-82
2022/03/31 06:49:54;;;;;;;;;;;15.30;76.70;;;;;;4998556;28;20370;-84
2022/03/31 06:52:19;;;;;;;;;;;14.30;75.40;;;;;;5015320;28;19912;-83
2022/03/31 06:54:45;;;;;;;;;;;15.70;75.70;;;;;;5019714;28;20004;-78
2022/03/31 06:57:10;;;;;;;;;;;15.80;74.50;;;;;;5019769;28;19913;-82
2022/03/31 06:59:36;;;;;;;;;;;15.80;75.50;;;;;;5019375;28;20209;-81
2022/03/31 07:02:01;;;;;;;;;;;15.60;75.30;;;;;;5014411;28;19909;-82
2022/03/31 07:04:27;;;;;;;;;;;15.60;76.00;;;;;;5016838;28;19967;-82
2022/03/31 07:06:52;;;;;;;;;;;15.40;75.70;;;;;;5019192;28;19909;-83
2022/03/31 07:09:18;;;;;;;;;;;15.20;77.80;;;;;;5019100;28;20253;-83
2022/03/31 07:11:44;;;;;;;;;;;15.20;79.40;;;;;;5001853;28;20358;-85
2022/03/31 07:14:09;;;;;;;;;;;14.90;79.90;;;;;;5019241;28;19913;-86
2022/03/31 07:16:35;;;;;;;;;;;14.80;81.70;;;;;;5019989;28;20312;-82
2022/03/31 07:19:03;;;;;;;;;;;14.70;83.60;;;;;;5019490;28;19920;-85
2022/03/31 07:21:28;;;;;;;;;;;14.60;86.40;;;;;;5019806;28;19915;-87
2022/03/31 07:23:54;;;;;;;;;;;14.40;89.90;;;;;;5019143;28;19913;-86
2022/03/31 07:26:19;;;;;;;;;;;14.30;90.60;;;;;;5020469;28;19909;-85
2022/03/31 07:28:46;;;;;;;;;;;14.30;91.40;;;;;;5023990;28;20344;-84
2022/03/31 07:31:11;;;;;;;;;;;14.50;91.80;;;;;;5027107;28;19983;-84
2022/03/31 07:33:37;;;;;;;;;;;14.00;92.00;;;;;;5009044;28;19909;-84
2022/03/31 07:36:03;;;;;;;;;;;14.00;92.90;;;;;;5020410;28;19955;-87
2022/03/31 07:38:29;;;;;;;;;;;13.80;93.50;;;;;;5020039;28;19992;-86
2022/03/31 07:40:55;;;;;;;;;;;13.80;91.90;;;;;;5020245;28;20486;-85
2022/03/31 07:43:21;;;;;;;;;;;13.80;92.20;;;;;;5002171;28;20111;-85
2022/03/31 07:45:47;;;;;;;;;;;13.70;92.60;;;;;;5002124;28;19913;-86
2022/03/31 07:48:15;;;;;;;;;;;13.70;92.20;;;;;;5002441;28;20422;-86
2022/03/31 07:50:41;;;;;;;;;;;13.70;91.50;;;;;;5002048;28;20195;-87
2022/03/31 07:53:08;;;;;;;;;;;13.70;92.40;;;;;;5020201;28;19955;-87
2022/03/31 07:55:34;;;;;;;;;;;13.70;92.70;;;;;;5019914;28;20170;-86
2022/03/31 07:57:59;;;;;;;;;;;13.70;92.60;;;;;;5002348;28;19920;-86
2022/03/31 08:00:25;;;;;;;;;;;13.70;93.80;;;;;;5020082;28;19909;-87
2022/03/31 08:02:51;;;;;;;;;;;13.60;92.30;;;;;;5019766;28;19935;-81
2022/03/31 08:05:18;;;;;;;;;;;13.40;93.90;;;;;;5019060;28;20234;-80
2022/03/31 08:07:44;;;;;;;;;;;13.20;95.30;;;;;;5017687;28;19913;-79
2022/03/31 08:10:09;;;;;;;;;;;13.00;95.60;;;;;;5019440;28;19917;-79
2022/03/31 08:12:36;;;;;;;;;;;12.80;96.30;;;;;;5019173;28;19909;-79
2022/03/31 08:15:03;;;;;;;;;;;12.60;96.20;;;;;;5002396;28;19916;-80
2022/03/31 08:17:29;;;;;;;;;;;12.60;96.50;;;;;;5019397;28;19917;-79
2022/03/31 08:19:54;;;;;;;;;;;12.60;96.60;;;;;;5019899;28;20087;-79
2022/03/31 08:22:20;;;;;;;;;;;12.60;96.90;;;;;;5019248;28;20414;-80
2022/03/31 08:24:46;;;;;;;;;;;12.60;96.00;;;;;;5020041;28;19931;-79
2022/03/31 08:27:11;;;;;;;;;;;12.60;96.40;;;;;;5025067;28;19972;-82
2022/03/31 08:29:39;;;;;;;;;;;12.70;95.60;;;;;;5021460;28;20363;-81
2022/03/31 08:32:06;;;;;;;;;;;12.70;96.00;;;;;;5019334;28;19909;-81
2022/03/31 08:34:32;;;;;;;;;;;12.70;96.00;;;;;;5018904;28;20469;-80
2022/03/31 08:36:57;;;;;;;;;;;12.70;95.60;;;;;;5018077;28;20000;-78
2022/03/31 08:39:23;;;;;;;;;;;12.70;96.60;;;;;;5018744;28;20217;-79
2022/03/31 08:41:48;;;;;;;;;;;12.60;95.30;;;;;;5018796;28;19909;-79
2022/03/31 08:44:15;;;;;;;;;;;12.60;95.40;;;;;;5017902;28;19909;-78
2022/03/31 08:46:41;;;;;;;;;;;12.40;97.00;;;;;;5019175;28;20338;-79
2022/03/31 08:49:10;;;;;;;;;;;12.30;96.00;;;;;;5021773;28;20019;-79
2022/03/31 08:51:36;;;;;;;;;;;12.20;96.00;;;;;;4999597;28;19909;-80
2022/03/31 08:54:02;;;;;;;;;;;12.20;98.20;;;;;;5021610;28;20161;-80
2022/03/31 08:56:30;;;;;;;;;;;12.10;97.40;;;;;;5022066;28;19910;-80
2022/03/31 08:58:56;;;;;;;;;;;12.20;99.00;;;;;;5022409;28;19909;-80
2022/03/31 09:01:22;;;;;;;;;;;11.90;99.00;;;;;;5004008;28;20529;-80
2022/03/31 09:03:48;;;;;;;;;;;12.00;99.10;;;;;;5021035;28;20379;-79
2022/03/31 09:06:21;;;;;;;;;;;13.10;99.90;;;;;;5000382;28;19936;-80
2022/03/31 09:08:54;;;;;;;;;;;12.00;99.20;;;;;;5021411;28;19909;-80
2022/03/31 09:11:24;;;;;;;;;;;12.10;99.70;;;;;;5021353;28;20157;-79
2022/03/31 09:13:54;;;;;;;;;;;12.10;99.90;;;;;;5013421;28;19920;-80
2022/03/31 09:16:28;;;;;;;;;;;12.10;99.90;;;;;;5021114;28;20357;-78
2022/03/31 09:18:58;;;;;;;;;;;12.20;99.50;;;;;;5014196;28;19910;-79
2022/03/31 09:21:24;;;;;;;;;;;12.30;98.80;;;;;;5021640;28;20334;-80
2022/03/31 09:23:52;;;;;;;;;;;12.40;99.40;;;;;;5021024;28;20633;-79
2022/03/31 09:26:18;;;;;;;;;;;12.50;98.90;;;;;;5021260;28;19909;-80
2022/03/31 09:28:44;;;;;;;;;;;12.60;99.00;;;;;;5021057;28;19910;-82
2022/03/31 09:31:10;;;;;;;;;;;12.80;99.20;;;;;;5023794;28;19956;-81
2022/03/31 09:33:48;;;;;;;;;;;12.80;98.10;;;;;;5024776;28;19910;-81
2022/03/31 09:36:15;;;;;;;;;;;13.00;98.10;;;;;;5025596;28;19909;-82
2022/03/31 09:38:44;;;;;;;;;;;13.20;96.30;;;;;;5025480;28;20015;-79
2022/03/31 09:41:20;;;;;;;;;;;13.30;95.40;;;;;;5021695;28;19909;-81
2022/03/31 09:43:46;;;;;;;;;;;13.20;95.20;;;;;;5021109;28;20004;-82
2022/03/31 09:46:18;;;;;;;;;;;13.20;95.20;;;;;;5022704;28;20074;-81
2022/03/31 09:48:44;;;;;;;;;;;13.30;92.50;;;;;;5025788;28;19909;-82
2022/03/31 09:51:09;;;;;;;;;;;13.30;93.80;;;;;;5023355;28;20298;-80
2022/03/31 09:53:35;;;;;;;;;;;13.30;94.20;;;;;;5009867;28;19917;-82
2022/03/31 09:56:01;;;;;;;;;;;13.30;94.40;;;;;;5033741;28;19919;-81
2022/03/31 09:58:27;;;;;;;;;;;13.40;93.00;;;;;;5024611;28;19912;-84
2022/03/31 10:00:53;;;;;;;;;;;13.40;92.90;;;;;;5016358;28;19910;-80
2022/03/31 10:03:20;;;;;;;;;;;13.40;91.30;;;;;;5016859;28;19909;-81
2022/03/31 10:05:46;;;;;;;;;;;13.40;92.70;;;;;;5020034;28;19913;-80
2022/03/31 10:08:12;;;;;;;;;;;13.40;94.20;;;;;;5020541;28;20415;-82
2022/03/31 10:10:38;;;;;;;;;;;13.40;95.10;;;;;;5020044;28;20222;-83
2022/03/31 10:13:20;;;;;;;;;;;13.40;94.50;;;;;;5005433;28;20364;-83
2022/03/31 10:15:46;;;;;;;;;;;13.50;92.90;;;;;;5020513;28;19920;-82
2022/03/31 10:18:13;;;;;;;;;;;13.40;92.60;;;;;;5020436;28;20403;-84
2022/03/31 10:20:38;;;;;;;;;;;13.50;93.00;;;;;;5020085;28;20188;-84
2022/03/31 10:25:48;;;;;;;;;;;13.60;95.10;;;;;;5012678;28;19979;-82
2022/03/31 10:28:16;;;;;;;;;;;13.50;95.10;;;;;;5020029;28;20487;-82
2022/03/31 10:30:58;;;;;;;;;;;13.90;95.40;;;;;;5001522;28;20024;-81
2022/03/31 10:33:30;;;;;;;;;;;13.60;94.80;;;;;;5020503;28;19910;-82
2022/03/31 10:36:12;;;;;;;;;;;13.60;94.30;;;;;;5018783;28;19920;-81
2022/03/31 10:38:39;;;;;;;;;;;13.60;94.10;;;;;;5028529;28;20001;-80
2022/03/31 10:41:08;;;;;;;;;;;13.50;95.30;;;;;;5025483;28;20036;-81
2022/03/31 10:43:37;;;;;;;;;;;13.40;95.00;;;;;;5022142;28;19954;-80
2022/03/31 10:46:13;;;;;;;;;;;13.40;94.60;;;;;;5023244;28;19913;-81
2022/03/31 10:48:46;;;;;;;;;;;13.50;94.50;;;;;;5024544;28;20192;-82
2022/03/31 10:51:12;;;;;;;;;;;13.50;93.40;;;;;;5021026;28;19921;-80
2022/03/31 10:53:39;;;;;;;;;;;13.60;95.00;;;;;;5025108;28;19916;-82
2022/03/31 10:56:16;;;;;;;;;;;13.60;93.90;;;;;;5024113;28;19909;-82
2022/03/31 10:58:43;;;;;;;;;;;13.60;94.80;;;;;;5019230;28;19944;-82
2022/03/31 11:01:10;;;;;;;;;;;13.70;94.60;;;;;;5018779;28;20015;-81
2022/03/31 11:03:35;;;;;;;;;;;13.80;95.70;;;;;;5018825;28;19914;-80
2022/03/31 11:06:04;;;;;;;;;;;13.90;95.30;;;;;;5018718;28;19963;-83
2022/03/31 11:08:30;;;;;;;;;;;13.90;94.50;;;;;;5018490;28;20470;-81
2022/03/31 11:10:55;;;;;;;;;;;14.10;92.60;;;;;;5018790;28;20012;-81
2022/03/31 11:13:30;;;;;;;;;;;14.20;93.50;;;;;;5018270;28;20627;-82
2022/03/31 11:15:56;;;;;;;;;;;14.40;95.90;;;;;;5018222;28;19921;-83
2022/03/31 11:18:22;;;;;;;;;;;12.80;93.70;;;;;;5018123;28;19987;-82
2022/03/31 11:20:50;;;;;;;;;;;14.00;92.10;;;;;;5018309;28;20486;-82
2022/03/31 11:23:15;;;;;;;;;;;14.30;92.40;;;;;;5000843;28;20301;-81
2022/03/31 11:25:44;;;;;;;;;;;14.30;93.50;;;;;;5019251;28;19971;-79
2022/03/31 11:28:11;;;;;;;;;;;14.10;93.40;;;;;;5018747;28;19909;-81
2022/03/31 11:30:37;;;;;;;;;;;14.10;92.60;;;;;;5015972;28;19918;-84
2022/03/31 11:33:03;;;;;;;;;;;14.00;92.90;;;;;;5018724;28;19913;-81
2022/03/31 11:35:29;;;;;;;;;;;14.10;93.10;;;;;;5018613;28;19996;-81
2022/03/31 11:38:00;;;;;;;;;;;14.10;92.80;;;;;;5018620;28;20000;-82
2022/03/31 11:40:25;;;;;;;;;;;14.20;93.50;;;;;;5019021;28;19935;-82
2022/03/31 11:42:52;;;;;;;;;;;14.30;91.30;;;;;;5019176;28;20423;-82
2022/03/31 11:45:33;;;;;;;;;;;14.60;93.30;;;;;;5018379;28;20113;-84
2022/03/31 11:48:06;;;;;;;;;;;14.80;92.90;;;;;;5018580;28;20115;-83
2022/03/31 11:50:33;;;;;;;;;;;15.00;92.80;;;;;;5017960;28;20399;-85
2022/03/31 11:53:00;;;;;;;;;;;14.90;91.20;;;;;;5024010;28;19971;-79
2022/03/31 11:55:26;;;;;;;;;;;16.20;90.80;;;;;;5024064;28;20107;-83
2022/03/31 11:57:57;;;;;;;;;;;14.90;91.00;;;;;;5031353;28;19956;-80
2022/03/31 12:00:23;;;;;;;;;;;14.90;91.10;;;;;;5033875;28;19971;-82
2022/03/31 12:02:55;;;;;;;;;;;14.80;91.50;;;;;;5028866;28;19975;-83
2022/03/31 12:05:21;;;;;;;;;;;14.80;92.10;;;;;;5012550;28;19972;-81
2022/03/31 12:07:47;;;;;;;;;;;14.70;90.30;;;;;;5017201;28;19913;-81
2022/03/31 12:10:13;;;;;;;;;;;14.60;91.40;;;;;;5019007;28;19917;-82
2022/03/31 12:12:47;;;;;;;;;;;14.60;90.90;;;;;;5018511;28;20491;-82
2022/03/31 12:15:17;;;;;;;;;;;11.50;91.00;;;;;;5017558;28;20383;-82
2022/03/31 12:17:43;;;;;;;;;;;14.60;91.30;;;;;;5017703;28;20446;-83
2022/03/31 12:20:13;;;;;;;;;;;14.60;91.40;;;;;;5017910;28;19909;-82
2022/03/31 12:22:39;;;;;;;;;;;14.60;91.70;;;;;;5017932;28;19919;-82
2022/03/31 12:25:04;;;;;;;;;;;14.40;91.40;;;;;;5018810;28;19913;-83
2022/03/31 12:27:30;;;;;;;;;;;14.50;92.10;;;;;;5003345;28;20046;-82
2022/03/31 12:29:59;;;;;;;;;;;14.20;92.10;;;;;;5035321;28;19939;-85
2022/03/31 12:32:25;;;;;;;;;;;14.20;92.00;;;;;;5021057;28;20305;-83
2022/03/31 12:34:55;;;;;;;;;;;14.30;91.50;;;;;;5040929;28;19924;-83
2022/03/31 12:37:27;;;;;;;;;;;14.30;90.10;;;;;;5040777;28;20161;-88
2022/03/31 12:39:53;;;;;;;;;;;14.40;90.60;;;;;;5029208;28;19944;-88
2022/03/31 12:42:18;;;;;;;;;;;14.30;91.40;;;;;;5024100;28;20317;-86
2022/03/31 12:44:44;;;;;;;;;;;14.30;91.10;;;;;;5028217;28;19909;-85
2022/03/31 12:47:10;;;;;;;;;;;14.30;90.50;;;;;;5014864;28;19967;-86
2022/03/31 12:49:40;;;;;;;;;;;14.30;91.50;;;;;;5027323;28;20519;-85
2022/03/31 12:52:16;;;;;;;;;;;14.50;90.90;;;;;;5009718;28;19909;-88
2022/03/31 12:55:01;;;;;;;;;;;14.50;91.00;;;;;;5030870;28;19970;-87
2022/03/31 12:57:28;;;;;;;;;;;14.50;90.00;;;;;;5027581;28;19910;-87
2022/03/31 12:59:58;;;;;;;;;;;14.60;89.20;;;;;;5007511;28;19940;-88
2022/03/31 13:02:24;;;;;;;;;;;14.40;86.90;;;;;;5023696;28;20086;-89
2022/03/31 13:04:49;;;;;;;;;;;14.90;88.50;;;;;;5002189;28;20000;-89
2022/03/31 13:07:16;;;;;;;;;;;15.20;82.60;;;;;;5002155;28;20111;-89
2022/03/31 13:09:43;;;;;;;;;;;15.50;85.60;;;;;;5021427;28;19923;-89
2022/03/31 13:12:12;;;;;;;;;;;15.80;79.10;;;;;;5023414;28;19999;-87
2022/03/31 13:14:37;;;;;;;;;;;15.90;78.70;;;;;;5022455;28;19965;-86
2022/03/31 13:17:04;;;;;;;;;;;16.10;82.60;;;;;;5005083;28;19917;-85
2022/03/31 13:19:30;;;;;;;;;;;16.30;78.50;;;;;;5004653;28;20351;-85
2022/03/31 13:21:56;;;;;;;;;;;16.50;76.60;;;;;;5004083;28;19972;-85
2022/03/31 13:24:22;;;;;;;;;;;16.40;75.80;;;;;;5021880;28;19949;-85
2022/03/31 13:26:51;;;;;;;;;;;16.20;74.50;;;;;;5021995;28;19920;-84
2022/03/31 13:29:16;;;;;;;;;;;16.00;76.50;;;;;;5021296;28;19913;-87
2022/03/31 13:31:45;;;;;;;;;;;16.00;76.10;;;;;;5021492;28;19923;-86
2022/03/31 13:34:10;;;;;;;;;;;15.70;74.90;;;;;;5004279;28;19909;-85
2022/03/31 13:36:37;;;;;;;;;;;15.40;76.00;;;;;;5004115;28;19909;-85
2022/03/31 13:39:10;;;;;;;;;;;15.20;74.50;;;;;;5021578;28;19955;-85
2022/03/31 13:41:39;;;;;;;;;;;15.10;75.10;;;;;;5022039;28;19909;-85
2022/03/31 13:44:05;;;;;;;;;;;14.90;73.90;;;;;;5003691;28;19917;-86
2022/03/31 13:46:30;;;;;;;;;;;14.70;75.30;;;;;;5019968;28;19914;-81
2022/03/31 13:48:56;;;;;;;;;;;14.50;75.50;;;;;;5021488;28;19963;-83
2022/03/31 13:51:21;;;;;;;;;;;14.40;74.50;;;;;;5003529;28;19942;-85
2022/03/31 13:53:53;;;;;;;;;;;14.20;76.30;;;;;;5021503;28;19909;-86
2022/03/31 13:56:18;;;;;;;;;;;14.00;74.40;;;;;;5020984;28;19982;-83
2022/03/31 14:01:28;;;;;;;;;;;14.10;75.60;;;;;;5021417;28;20249;-86
2022/03/31 14:03:55;;;;;;;;;;;14.10;76.80;;;;;;5020782;28;19921;-83
2022/03/31 14:06:21;;;;;;;;;;;14.20;75.30;;;;;;5002966;28;20292;-84
2022/03/31 14:08:48;;;;;;;;;;;14.20;72.80;;;;;;5020977;28;20387;-83
2022/03/31 14:11:14;;;;;;;;;;;14.40;72.70;;;;;;5021395;28;19929;-82
2022/03/31 14:13:39;;;;;;;;;;;14.40;72.80;;;;;;5021298;28;19909;-82
2022/03/31 14:16:06;;;;;;;;;;;14.50;73.00;;;;;;5021603;28;20016;-82
2022/03/31 14:18:36;;;;;;;;;;;14.50;75.30;;;;;;5021074;28;20380;-84
2022/03/31 14:21:02;;;;;;;;;;;14.40;75.70;;;;;;5021088;28;20214;-82